sensor_id;sensor_type;location;lat;lon;timestamp;P1;durP1;ratioP1;P2;durP2;ratioP2
55815;SDS011;41744;52.404;16.942;2023-09-12T00:02:23;25.42;;;13.90;;
55815;SDS011;41744;52.404;16.942;2023-09-12T00:04:49;31.02;;;13.43;;
55815;SDS011;41744;52.404;16.942;2023-09-12T00:07:15;21.00;;;13.45;;
55815;SDS011;41744;52.404;16.942;2023-09-12T00:12:45;21.45;;;13.90;;
55815;SDS011;41744;52.404;16.942;2023-09-12T00:15:11;22.42;;;13.13;;
55815;SDS011;41744;52.404;16.942;2023-09-12T00:17:37;22.85;;;12.57;;
55815;SDS011;41744;52.404;16.942;2023-09-12T00:23:07;28.60;;;13.60;;
55815;SDS011;41744;52.404;16.942;2023-09-12T00:25:33;23.13;;;13.50;;
55815;SDS011;41744;52.404;16.942;2023-09-12T00:27:59;22.58;;;12.98;;
55815;SDS011;41744;52.404;16.942;2023-09-12T00:30:25;25.05;;;13.95;;
55815;SDS011;41744;52.404;16.942;2023-09-12T00:32:51;28.23;;;14.80;;
55815;SDS011;41744;52.404;16.942;2023-09-12T00:35:17;23.55;;;14.05;;
55815;SDS011;41744;52.404;16.942;2023-09-12T00:37:43;22.50;;;13.18;;
55815;SDS011;41744;52.404;16.942;2023-09-12T00:43:13;31.00;;;14.77;;
55815;SDS011;41744;52.404;16.942;2023-09-12T00:45:39;26.40;;;14.43;;
55815;SDS011;41744;52.404;16.942;2023-09-12T00:51:22;27.10;;;13.75;;
55815;SDS011;41744;52.404;16.942;2023-09-12T00:53:50;23.48;;;13.73;;
55815;SDS011;41744;52.404;16.942;2023-09-12T00:56:16;24.58;;;14.35;;
55815;SDS011;41744;52.404;16.942;2023-09-12T00:58:42;24.63;;;14.35;;
55815;SDS011;41744;52.404;16.942;2023-09-12T01:01:08;27.05;;;13.93;;
55815;SDS011;41744;52.404;16.942;2023-09-12T01:03:34;27.10;;;14.57;;
55815;SDS011;41744;52.404;16.942;2023-09-12T01:06:01;26.10;;;14.35;;
55815;SDS011;41744;52.404;16.942;2023-09-12T01:11:31;22.63;;;14.32;;
55815;SDS011;41744;52.404;16.942;2023-09-12T01:13:57;27.20;;;14.40;;
55815;SDS011;41744;52.404;16.942;2023-09-12T01:16:23;25.85;;;14.98;;
55815;SDS011;41744;52.404;16.942;2023-09-12T01:18:49;26.10;;;14.48;;
55815;SDS011;41744;52.404;16.942;2023-09-12T01:32:21;24.30;;;14.13;;
55815;SDS011;41744;52.404;16.942;2023-09-12T01:34:47;30.52;;;15.27;;
55815;SDS011;41744;52.404;16.942;2023-09-12T01:37:13;30.67;;;14.98;;
55815;SDS011;41744;52.404;16.942;2023-09-12T01:39:39;28.15;;;14.93;;
55815;SDS011;41744;52.404;16.942;2023-09-12T01:42:06;26.83;;;14.65;;
55815;SDS011;41744;52.404;16.942;2023-09-12T01:44:34;22.38;;;12.70;;
55815;SDS011;41744;52.404;16.942;2023-09-12T01:47:02;24.38;;;13.38;;
55815;SDS011;41744;52.404;16.942;2023-09-12T01:52:38;23.52;;;13.75;;
55815;SDS011;41744;52.404;16.942;2023-09-12T01:55:05;26.77;;;13.90;;
55815;SDS011;41744;52.404;16.942;2023-09-12T01:57:34;26.63;;;14.40;;
55815;SDS011;41744;52.404;16.942;2023-09-12T02:00:00;26.63;;;14.00;;
55815;SDS011;41744;52.404;16.942;2023-09-12T02:02:26;25.83;;;13.43;;
55815;SDS011;41744;52.404;16.942;2023-09-12T02:07:37;25.88;;;14.15;;
55815;SDS011;41744;52.404;16.942;2023-09-12T02:10:04;28.10;;;13.93;;
55815;SDS011;41744;52.404;16.942;2023-09-12T02:12:33;28.55;;;14.25;;
55815;SDS011;41744;52.404;16.942;2023-09-12T02:14:59;23.48;;;13.57;;
55815;SDS011;41744;52.404;16.942;2023-09-12T02:17:25;25.20;;;14.20;;
55815;SDS011;41744;52.404;16.942;2023-09-12T02:22:55;29.80;;;14.15;;
55815;SDS011;41744;52.404;16.942;2023-09-12T02:25:21;26.58;;;14.43;;
55815;SDS011;41744;52.404;16.942;2023-09-12T02:27:47;22.05;;;13.85;;
55815;SDS011;41744;52.404;16.942;2023-09-12T02:33:16;27.27;;;14.38;;
55815;SDS011;41744;52.404;16.942;2023-09-12T02:35:42;27.05;;;14.68;;
55815;SDS011;41744;52.404;16.942;2023-09-12T02:41:12;27.70;;;15.77;;
55815;SDS011;41744;52.404;16.942;2023-09-12T02:43:38;24.65;;;15.15;;
55815;SDS011;41744;52.404;16.942;2023-09-12T02:46:04;29.33;;;15.27;;
55815;SDS011;41744;52.404;16.942;2023-09-12T02:48:30;31.05;;;15.90;;
55815;SDS011;41744;52.404;16.942;2023-09-12T02:50:56;28.40;;;15.52;;
55815;SDS011;41744;52.404;16.942;2023-09-12T02:53:22;26.92;;;14.70;;
55815;SDS011;41744;52.404;16.942;2023-09-12T02:55:48;30.77;;;16.17;;
55815;SDS011;41744;52.404;16.942;2023-09-12T02:58:14;25.80;;;15.57;;
55815;SDS011;41744;52.404;16.942;2023-09-12T03:00:40;27.48;;;15.77;;
55815;SDS011;41744;52.404;16.942;2023-09-12T03:03:06;24.88;;;15.88;;
55815;SDS011;41744;52.404;16.942;2023-09-12T03:05:34;28.88;;;16.27;;
55815;SDS011;41744;52.404;16.942;2023-09-12T03:08:00;26.60;;;15.43;;
55815;SDS011;41744;52.404;16.942;2023-09-12T03:10:26;25.20;;;14.80;;
55815;SDS011;41744;52.404;16.942;2023-09-12T03:12:52;28.92;;;15.43;;
55815;SDS011;41744;52.404;16.942;2023-09-12T03:15:18;30.05;;;16.02;;
55815;SDS011;41744;52.404;16.942;2023-09-12T03:17:44;27.23;;;15.75;;
55815;SDS011;41744;52.404;16.942;2023-09-12T03:23:13;27.58;;;15.27;;
55815;SDS011;41744;52.404;16.942;2023-09-12T03:25:39;29.95;;;15.77;;
55815;SDS011;41744;52.404;16.942;2023-09-12T03:28:05;30.50;;;15.27;;
55815;SDS011;41744;52.404;16.942;2023-09-12T03:30:35;29.20;;;16.35;;
55815;SDS011;41744;52.404;16.942;2023-09-12T03:33:02;29.85;;;15.63;;
55815;SDS011;41744;52.404;16.942;2023-09-12T03:35:28;30.98;;;15.48;;
55815;SDS011;41744;52.404;16.942;2023-09-12T03:37:55;28.42;;;15.73;;
55815;SDS011;41744;52.404;16.942;2023-09-12T03:40:21;28.45;;;16.92;;
55815;SDS011;41744;52.404;16.942;2023-09-12T03:42:47;30.70;;;16.80;;
55815;SDS011;41744;52.404;16.942;2023-09-12T03:45:13;32.13;;;16.40;;
55815;SDS011;41744;52.404;16.942;2023-09-12T03:47:39;32.10;;;16.52;;
55815;SDS011;41744;52.404;16.942;2023-09-12T03:53:15;25.27;;;15.93;;
55815;SDS011;41744;52.404;16.942;2023-09-12T03:55:41;28.50;;;17.15;;
55815;SDS011;41744;52.404;16.942;2023-09-12T04:01:10;27.60;;;16.17;;
55815;SDS011;41744;52.404;16.942;2023-09-12T04:03:36;26.80;;;15.13;;
55815;SDS011;41744;52.404;16.942;2023-09-12T04:06:03;27.88;;;16.02;;
55815;SDS011;41744;52.404;16.942;2023-09-12T04:08:29;27.98;;;15.52;;
55815;SDS011;41744;52.404;16.942;2023-09-12T04:10:55;30.70;;;16.92;;
55815;SDS011;41744;52.404;16.942;2023-09-12T04:13:21;34.88;;;17.20;;
55815;SDS011;41744;52.404;16.942;2023-09-12T04:15:47;30.55;;;15.93;;
55815;SDS011;41744;52.404;16.942;2023-09-12T04:18:13;28.02;;;15.90;;
55815;SDS011;41744;52.404;16.942;2023-09-12T04:20:39;27.80;;;15.88;;
55815;SDS011;41744;52.404;16.942;2023-09-12T04:23:05;31.13;;;16.27;;
55815;SDS011;41744;52.404;16.942;2023-09-12T04:25:31;28.30;;;15.55;;
55815;SDS011;41744;52.404;16.942;2023-09-12T04:27:58;32.47;;;17.55;;
55815;SDS011;41744;52.404;16.942;2023-09-12T04:30:24;31.95;;;16.42;;
55815;SDS011;41744;52.404;16.942;2023-09-12T04:32:50;29.80;;;17.02;;
55815;SDS011;41744;52.404;16.942;2023-09-12T04:35:16;32.47;;;17.13;;
55815;SDS011;41744;52.404;16.942;2023-09-12T04:37:44;27.27;;;16.05;;
55815;SDS011;41744;52.404;16.942;2023-09-12T04:43:14;27.73;;;16.15;;
55815;SDS011;41744;52.404;16.942;2023-09-12T04:45:39;34.90;;;16.88;;
55815;SDS011;41744;52.404;16.942;2023-09-12T04:48:06;39.20;;;17.67;;
55815;SDS011;41744;52.404;16.942;2023-09-12T04:50:32;28.33;;;16.63;;
55815;SDS011;41744;52.404;16.942;2023-09-12T04:52:58;28.73;;;17.83;;
55815;SDS011;41744;52.404;16.942;2023-09-12T04:55:24;33.92;;;18.35;;
55815;SDS011;41744;52.404;16.942;2023-09-12T04:57:50;29.65;;;17.65;;
55815;SDS011;41744;52.404;16.942;2023-09-12T05:00:16;29.77;;;17.15;;
55815;SDS011;41744;52.404;16.942;2023-09-12T05:02:42;33.10;;;17.52;;
55815;SDS011;41744;52.404;16.942;2023-09-12T05:05:08;37.80;;;17.42;;
55815;SDS011;41744;52.404;16.942;2023-09-12T05:07:34;34.05;;;16.95;;
55815;SDS011;41744;52.404;16.942;2023-09-12T05:13:10;29.65;;;16.85;;
55815;SDS011;41744;52.404;16.942;2023-09-12T05:15:37;33.85;;;16.67;;
55815;SDS011;41744;52.404;16.942;2023-09-12T05:21:07;28.05;;;16.42;;
55815;SDS011;41744;52.404;16.942;2023-09-12T05:23:33;29.85;;;16.90;;
55815;SDS011;41744;52.404;16.942;2023-09-12T05:25:59;31.45;;;17.75;;
55815;SDS011;41744;52.404;16.942;2023-09-12T05:28:25;29.70;;;16.58;;
55815;SDS011;41744;52.404;16.942;2023-09-12T05:30:52;30.13;;;16.63;;
55815;SDS011;41744;52.404;16.942;2023-09-12T05:33:18;28.50;;;16.95;;
55815;SDS011;41744;52.404;16.942;2023-09-12T05:35:44;31.13;;;17.25;;
55815;SDS011;41744;52.404;16.942;2023-09-12T05:38:10;29.27;;;17.17;;
55815;SDS011;41744;52.404;16.942;2023-09-12T05:40:36;27.20;;;16.75;;
55815;SDS011;41744;52.404;16.942;2023-09-12T05:43:02;34.63;;;18.10;;
55815;SDS011;41744;52.404;16.942;2023-09-12T05:45:29;28.33;;;16.98;;
55815;SDS011;41744;52.404;16.942;2023-09-12T05:47:55;32.03;;;17.58;;
55815;SDS011;41744;52.404;16.942;2023-09-12T05:50:21;32.17;;;18.42;;
55815;SDS011;41744;52.404;16.942;2023-09-12T05:52:48;31.30;;;18.67;;
55815;SDS011;41744;52.404;16.942;2023-09-12T05:55:14;32.17;;;18.27;;
55815;SDS011;41744;52.404;16.942;2023-09-12T05:57:40;31.27;;;16.48;;
55815;SDS011;41744;52.404;16.942;2023-09-12T06:00:06;31.35;;;18.58;;
55815;SDS011;41744;52.404;16.942;2023-09-12T06:02:36;31.08;;;17.13;;
55815;SDS011;41744;52.404;16.942;2023-09-12T06:05:02;30.98;;;18.50;;
55815;SDS011;41744;52.404;16.942;2023-09-12T06:07:28;34.20;;;18.95;;
55815;SDS011;41744;52.404;16.942;2023-09-12T06:12:59;36.17;;;20.90;;
55815;SDS011;41744;52.404;16.942;2023-09-12T06:15:25;39.30;;;20.92;;
55815;SDS011;41744;52.404;16.942;2023-09-12T06:17:51;35.58;;;20.98;;
55815;SDS011;41744;52.404;16.942;2023-09-12T06:20:17;46.45;;;23.60;;
55815;SDS011;41744;52.404;16.942;2023-09-12T06:22:43;36.90;;;21.27;;
55815;SDS011;41744;52.404;16.942;2023-09-12T06:25:09;31.88;;;19.77;;
55815;SDS011;41744;52.404;16.942;2023-09-12T06:27:35;36.63;;;20.80;;
55815;SDS011;41744;52.404;16.942;2023-09-12T06:33:05;36.55;;;19.92;;
55815;SDS011;41744;52.404;16.942;2023-09-12T06:35:31;40.97;;;20.55;;
55815;SDS011;41744;52.404;16.942;2023-09-12T06:37:58;35.85;;;20.85;;
55815;SDS011;41744;52.404;16.942;2023-09-12T06:40:24;37.15;;;20.23;;
55815;SDS011;41744;52.404;16.942;2023-09-12T06:42:50;33.35;;;20.13;;
55815;SDS011;41744;52.404;16.942;2023-09-12T06:45:16;30.75;;;19.65;;
55815;SDS011;41744;52.404;16.942;2023-09-12T06:47:42;31.70;;;19.15;;
55815;SDS011;41744;52.404;16.942;2023-09-12T06:50:08;31.88;;;19.42;;
55815;SDS011;41744;52.404;16.942;2023-09-12T06:52:34;31.80;;;18.58;;
55815;SDS011;41744;52.404;16.942;2023-09-12T06:55:00;33.08;;;18.17;;
55815;SDS011;41744;52.404;16.942;2023-09-12T06:57:26;30.25;;;17.83;;
55815;SDS011;41744;52.404;16.942;2023-09-12T07:02:58;31.35;;;16.83;;
55815;SDS011;41744;52.404;16.942;2023-09-12T07:05:24;35.65;;;16.73;;
55815;SDS011;41744;52.404;16.942;2023-09-12T07:07:50;37.10;;;19.08;;
55815;SDS011;41744;52.404;16.942;2023-09-12T07:13:26;35.13;;;18.85;;
55815;SDS011;41744;52.404;16.942;2023-09-12T07:15:52;26.77;;;16.48;;
55815;SDS011;41744;52.404;16.942;2023-09-12T07:18:18;27.25;;;16.77;;
55815;SDS011;41744;52.404;16.942;2023-09-12T07:20:45;42.38;;;16.88;;
55815;SDS011;41744;52.404;16.942;2023-09-12T07:23:11;41.03;;;19.42;;
55815;SDS011;41744;52.404;16.942;2023-09-12T07:25:38;26.23;;;16.48;;
55815;SDS011;41744;52.404;16.942;2023-09-12T07:28:05;31.73;;;18.90;;
55815;SDS011;41744;52.404;16.942;2023-09-12T07:30:31;31.38;;;17.58;;
55815;SDS011;41744;52.404;16.942;2023-09-12T07:32:57;30.92;;;17.27;;
55815;SDS011;41744;52.404;16.942;2023-09-12T07:35:23;24.90;;;14.52;;
55815;SDS011;41744;52.404;16.942;2023-09-12T07:37:49;27.50;;;15.70;;
55815;SDS011;41744;52.404;16.942;2023-09-12T07:40:15;40.95;;;18.67;;
55815;SDS011;41744;52.404;16.942;2023-09-12T07:42:41;34.40;;;17.52;;
55815;SDS011;41744;52.404;16.942;2023-09-12T07:45:07;24.60;;;15.00;;
55815;SDS011;41744;52.404;16.942;2023-09-12T07:47:34;27.20;;;14.25;;
55815;SDS011;41744;52.404;16.942;2023-09-12T07:50:00;29.05;;;14.27;;
55815;SDS011;41744;52.404;16.942;2023-09-12T07:52:26;26.63;;;15.48;;
55815;SDS011;41744;52.404;16.942;2023-09-12T07:54:52;32.53;;;15.10;;
55815;SDS011;41744;52.404;16.942;2023-09-12T07:57:22;31.90;;;16.23;;
55815;SDS011;41744;52.404;16.942;2023-09-12T08:02:51;27.13;;;12.90;;
55815;SDS011;41744;52.404;16.942;2023-09-12T08:05:17;24.17;;;16.40;;
55815;SDS011;41744;52.404;16.942;2023-09-12T08:07:44;35.53;;;16.65;;
55815;SDS011;41744;52.404;16.942;2023-09-12T08:10:10;22.20;;;13.32;;
55815;SDS011;41744;52.404;16.942;2023-09-12T08:12:36;29.63;;;12.90;;
55815;SDS011;41744;52.404;16.942;2023-09-12T08:15:03;25.42;;;12.57;;
55815;SDS011;41744;52.404;16.942;2023-09-12T08:17:30;29.65;;;13.30;;
55815;SDS011;41744;52.404;16.942;2023-09-12T08:22:59;21.88;;;14.45;;
55815;SDS011;41744;52.404;16.942;2023-09-12T08:25:25;24.58;;;13.55;;
55815;SDS011;41744;52.404;16.942;2023-09-12T08:27:52;24.75;;;13.65;;
55815;SDS011;41744;52.404;16.942;2023-09-12T08:30:18;24.77;;;14.02;;
55815;SDS011;41744;52.404;16.942;2023-09-12T08:32:44;22.58;;;13.50;;
55815;SDS011;41744;52.404;16.942;2023-09-12T08:35:10;23.85;;;13.15;;
55815;SDS011;41744;52.404;16.942;2023-09-12T08:37:37;21.05;;;12.38;;
55815;SDS011;41744;52.404;16.942;2023-09-12T08:40:05;22.27;;;12.48;;
55815;SDS011;41744;52.404;16.942;2023-09-12T08:42:32;20.48;;;11.43;;
55815;SDS011;41744;52.404;16.942;2023-09-12T08:45:02;18.92;;;11.95;;
55815;SDS011;41744;52.404;16.942;2023-09-12T08:47:29;16.63;;;11.10;;
55815;SDS011;41744;52.404;16.942;2023-09-12T08:52:58;20.58;;;10.57;;
55815;SDS011;41744;52.404;16.942;2023-09-12T08:55:25;20.33;;;12.23;;
55815;SDS011;41744;52.404;16.942;2023-09-12T08:57:51;19.58;;;11.32;;
55815;SDS011;41744;52.404;16.942;2023-09-12T09:00:17;22.58;;;11.10;;
55815;SDS011;41744;52.404;16.942;2023-09-12T09:02:44;20.13;;;10.65;;
55815;SDS011;41744;52.404;16.942;2023-09-12T09:05:11;16.48;;;11.45;;
55815;SDS011;41744;52.404;16.942;2023-09-12T09:07:37;20.30;;;11.00;;
55815;SDS011;41744;52.404;16.942;2023-09-12T09:13:07;15.70;;;10.50;;
55815;SDS011;41744;52.404;16.942;2023-09-12T09:15:34;16.95;;;10.10;;
55815;SDS011;41744;52.404;16.942;2023-09-12T09:21:19;19.40;;;10.15;;
55815;SDS011;41744;52.404;16.942;2023-09-12T09:23:45;19.38;;;10.05;;
55815;SDS011;41744;52.404;16.942;2023-09-12T09:26:12;15.30;;;9.02;;
55815;SDS011;41744;52.404;16.942;2023-09-12T09:28:38;15.85;;;10.07;;
55815;SDS011;41744;52.404;16.942;2023-09-12T09:31:04;19.67;;;10.68;;
55815;SDS011;41744;52.404;16.942;2023-09-12T09:33:35;17.02;;;10.00;;
55815;SDS011;41744;52.404;16.942;2023-09-12T09:36:02;15.27;;;9.93;;
55815;SDS011;41744;52.404;16.942;2023-09-12T09:41:32;19.88;;;10.15;;
55815;SDS011;41744;52.404;16.942;2023-09-12T09:43:58;16.88;;;9.93;;
55815;SDS011;41744;52.404;16.942;2023-09-12T09:46:26;22.00;;;10.48;;
55815;SDS011;41744;52.404;16.942;2023-09-12T09:48:52;18.95;;;10.68;;
55815;SDS011;41744;52.404;16.942;2023-09-12T09:51:18;39.40;;;12.93;;
55815;SDS011;41744;52.404;16.942;2023-09-12T09:53:44;19.00;;;11.20;;
55815;SDS011;41744;52.404;16.942;2023-09-12T09:56:12;19.83;;;10.30;;
55815;SDS011;41744;52.404;16.942;2023-09-12T10:01:43;27.50;;;12.52;;
55815;SDS011;41744;52.404;16.942;2023-09-12T10:04:10;32.13;;;12.90;;
55815;SDS011;41744;52.404;16.942;2023-09-12T10:06:36;39.40;;;14.05;;
55815;SDS011;41744;52.404;16.942;2023-09-12T10:09:05;18.02;;;10.38;;
55815;SDS011;41744;52.404;16.942;2023-09-12T10:11:31;31.80;;;13.23;;
55815;SDS011;41744;52.404;16.942;2023-09-12T10:13:59;29.17;;;12.13;;
55815;SDS011;41744;52.404;16.942;2023-09-12T10:16:35;40.90;;;12.68;;
55815;SDS011;41744;52.404;16.942;2023-09-12T10:22:20;24.52;;;12.88;;
55815;SDS011;41744;52.404;16.942;2023-09-12T10:24:47;15.43;;;9.18;;
55815;SDS011;41744;52.404;16.942;2023-09-12T10:27:14;12.13;;;8.45;;
55815;SDS011;41744;52.404;16.942;2023-09-12T10:32:50;21.08;;;9.15;;
55815;SDS011;41744;52.404;16.942;2023-09-12T10:35:16;17.35;;;9.27;;
55815;SDS011;41744;52.404;16.942;2023-09-12T10:37:43;15.18;;;9.70;;
55815;SDS011;41744;52.404;16.942;2023-09-12T10:43:15;16.38;;;8.55;;
55815;SDS011;41744;52.404;16.942;2023-09-12T10:45:41;13.57;;;9.25;;
55815;SDS011;41744;52.404;16.942;2023-09-12T10:48:09;12.95;;;8.77;;
55815;SDS011;41744;52.404;16.942;2023-09-12T10:50:36;14.82;;;9.18;;
55815;SDS011;41744;52.404;16.942;2023-09-12T10:53:10;13.27;;;8.82;;
55815;SDS011;41744;52.404;16.942;2023-09-12T10:55:36;15.35;;;9.10;;
55815;SDS011;41744;52.404;16.942;2023-09-12T10:58:03;17.25;;;9.43;;
55815;SDS011;41744;52.404;16.942;2023-09-12T11:00:29;16.33;;;9.45;;
55815;SDS011;41744;52.404;16.942;2023-09-12T11:03:00;16.50;;;9.75;;
55815;SDS011;41744;52.404;16.942;2023-09-12T11:05:51;14.43;;;9.55;;
55815;SDS011;41744;52.404;16.942;2023-09-12T11:08:18;12.88;;;8.75;;
55815;SDS011;41744;52.404;16.942;2023-09-12T11:10:44;15.75;;;9.43;;
55815;SDS011;41744;52.404;16.942;2023-09-12T11:13:17;14.82;;;9.25;;
55815;SDS011;41744;52.404;16.942;2023-09-12T11:18:28;15.75;;;11.63;;
55815;SDS011;41744;52.404;16.942;2023-09-12T11:20:59;16.55;;;10.32;;
55815;SDS011;41744;52.404;16.942;2023-09-12T11:23:28;21.15;;;10.07;;
55815;SDS011;41744;52.404;16.942;2023-09-12T11:26:04;17.05;;;10.43;;
55815;SDS011;41744;52.404;16.942;2023-09-12T11:28:31;13.95;;;10.30;;
55815;SDS011;41744;52.404;16.942;2023-09-12T11:30:57;14.73;;;9.77;;
55815;SDS011;41744;52.404;16.942;2023-09-12T11:33:24;14.50;;;10.30;;
55815;SDS011;41744;52.404;16.942;2023-09-12T11:35:51;14.63;;;10.40;;
55815;SDS011;41744;52.404;16.942;2023-09-12T11:38:25;16.27;;;10.20;;
55815;SDS011;41744;52.404;16.942;2023-09-12T11:40:52;15.80;;;10.25;;
55815;SDS011;41744;52.404;16.942;2023-09-12T11:43:25;15.05;;;10.00;;
55815;SDS011;41744;52.404;16.942;2023-09-12T11:45:52;13.07;;;9.77;;
55815;SDS011;41744;52.404;16.942;2023-09-12T11:48:19;19.30;;;10.40;;
55815;SDS011;41744;52.404;16.942;2023-09-12T11:50:52;13.32;;;9.07;;
55815;SDS011;41744;52.404;16.942;2023-09-12T11:53:22;14.32;;;7.80;;
55815;SDS011;41744;52.404;16.942;2023-09-12T11:55:51;14.18;;;8.75;;
55815;SDS011;41744;52.404;16.942;2023-09-12T12:01:21;16.63;;;10.23;;
55815;SDS011;41744;52.404;16.942;2023-09-12T12:03:47;18.73;;;8.40;;
55815;SDS011;41744;52.404;16.942;2023-09-12T12:06:17;15.05;;;8.93;;
55815;SDS011;41744;52.404;16.942;2023-09-12T12:08:44;15.55;;;8.95;;
55815;SDS011;41744;52.404;16.942;2023-09-12T12:11:11;13.73;;;8.20;;
55815;SDS011;41744;52.404;16.942;2023-09-12T12:13:37;13.27;;;7.97;;
55815;SDS011;41744;52.404;16.942;2023-09-12T12:16:16;15.60;;;8.98;;
55815;SDS011;41744;52.404;16.942;2023-09-12T12:18:42;11.05;;;8.25;;
55815;SDS011;41744;52.404;16.942;2023-09-12T12:21:08;12.40;;;8.77;;
55815;SDS011;41744;52.404;16.942;2023-09-12T12:23:34;12.93;;;8.82;;
55815;SDS011;41744;52.404;16.942;2023-09-12T12:26:07;13.15;;;9.00;;
55815;SDS011;41744;52.404;16.942;2023-09-12T12:31:37;16.35;;;7.93;;
55815;SDS011;41744;52.404;16.942;2023-09-12T12:34:04;14.05;;;8.25;;
55815;SDS011;41744;52.404;16.942;2023-09-12T12:36:30;14.30;;;8.25;;
55815;SDS011;41744;52.404;16.942;2023-09-12T12:38:57;15.65;;;8.90;;
55815;SDS011;41744;52.404;16.942;2023-09-12T12:41:23;13.75;;;8.77;;
55815;SDS011;41744;52.404;16.942;2023-09-12T12:43:51;15.63;;;8.85;;
55815;SDS011;41744;52.404;16.942;2023-09-12T12:46:17;14.75;;;8.93;;
55815;SDS011;41744;52.404;16.942;2023-09-12T12:48:44;15.20;;;8.75;;
55815;SDS011;41744;52.404;16.942;2023-09-12T12:51:15;15.50;;;9.10;;
55815;SDS011;41744;52.404;16.942;2023-09-12T12:53:42;13.10;;;9.07;;
55815;SDS011;41744;52.404;16.942;2023-09-12T12:56:10;12.93;;;8.57;;
55815;SDS011;41744;52.404;16.942;2023-09-12T13:01:40;12.95;;;8.63;;
55815;SDS011;41744;52.404;16.942;2023-09-12T13:04:07;23.13;;;9.98;;
55815;SDS011;41744;52.404;16.942;2023-09-12T13:06:33;15.23;;;8.60;;
55815;SDS011;41744;52.404;16.942;2023-09-12T13:09:01;14.73;;;9.30;;
55815;SDS011;41744;52.404;16.942;2023-09-12T13:11:29;15.95;;;8.25;;
55815;SDS011;41744;52.404;16.942;2023-09-12T13:13:56;13.80;;;8.63;;
55815;SDS011;41744;52.404;16.942;2023-09-12T13:16:22;14.80;;;8.45;;
55815;SDS011;41744;52.404;16.942;2023-09-12T13:21:51;14.68;;;8.88;;
55815;SDS011;41744;52.404;16.942;2023-09-12T13:24:17;15.27;;;8.60;;
55815;SDS011;41744;52.404;16.942;2023-09-12T13:26:43;14.50;;;8.77;;
55815;SDS011;41744;52.404;16.942;2023-09-12T13:29:09;13.65;;;8.65;;
55815;SDS011;41744;52.404;16.942;2023-09-12T13:31:35;12.70;;;8.68;;
55815;SDS011;41744;52.404;16.942;2023-09-12T13:34:01;10.70;;;7.97;;
55815;SDS011;41744;52.404;16.942;2023-09-12T13:36:28;13.50;;;8.57;;
55815;SDS011;41744;52.404;16.942;2023-09-12T13:41:57;12.70;;;8.85;;
55815;SDS011;41744;52.404;16.942;2023-09-12T13:44:26;12.45;;;8.32;;
55815;SDS011;41744;52.404;16.942;2023-09-12T13:46:53;12.65;;;8.60;;
55815;SDS011;41744;52.404;16.942;2023-09-12T13:49:19;14.48;;;8.13;;
55815;SDS011;41744;52.404;16.942;2023-09-12T13:51:45;14.25;;;8.60;;
55815;SDS011;41744;52.404;16.942;2023-09-12T13:54:11;14.68;;;8.77;;
55815;SDS011;41744;52.404;16.942;2023-09-12T13:56:43;12.80;;;8.55;;
55815;SDS011;41744;52.404;16.942;2023-09-12T13:59:09;11.70;;;8.35;;
55815;SDS011;41744;52.404;16.942;2023-09-12T14:01:36;12.35;;;8.15;;
55815;SDS011;41744;52.404;16.942;2023-09-12T14:04:02;12.98;;;8.30;;
55815;SDS011;41744;52.404;16.942;2023-09-12T14:06:29;15.23;;;8.85;;
55815;SDS011;41744;52.404;16.942;2023-09-12T14:11:58;12.27;;;8.23;;
55815;SDS011;41744;52.404;16.942;2023-09-12T14:14:24;11.88;;;8.20;;
55815;SDS011;41744;52.404;16.942;2023-09-12T14:16:50;11.43;;;8.30;;
55815;SDS011;41744;52.404;16.942;2023-09-12T14:19:16;13.43;;;8.05;;
55815;SDS011;41744;52.404;16.942;2023-09-12T14:21:42;13.50;;;8.50;;
55815;SDS011;41744;52.404;16.942;2023-09-12T14:24:11;16.67;;;8.98;;
55815;SDS011;41744;52.404;16.942;2023-09-12T14:26:37;14.10;;;8.80;;
55815;SDS011;41744;52.404;16.942;2023-09-12T14:32:06;13.15;;;8.27;;
55815;SDS011;41744;52.404;16.942;2023-09-12T14:34:32;13.15;;;8.60;;
55815;SDS011;41744;52.404;16.942;2023-09-12T14:36:58;12.40;;;8.52;;
55815;SDS011;41744;52.404;16.942;2023-09-12T14:42:28;23.42;;;8.25;;
55815;SDS011;41744;52.404;16.942;2023-09-12T14:44:54;15.75;;;8.73;;
55815;SDS011;41744;52.404;16.942;2023-09-12T14:47:22;12.60;;;8.95;;
55815;SDS011;41744;52.404;16.942;2023-09-12T14:49:49;13.10;;;8.90;;
55815;SDS011;41744;52.404;16.942;2023-09-12T14:52:15;17.23;;;8.90;;
55815;SDS011;41744;52.404;16.942;2023-09-12T14:54:41;12.25;;;8.73;;
55815;SDS011;41744;52.404;16.942;2023-09-12T14:57:07;11.75;;;8.52;;
55815;SDS011;41744;52.404;16.942;2023-09-12T15:02:37;14.07;;;8.73;;
55815;SDS011;41744;52.404;16.942;2023-09-12T15:05:03;18.00;;;9.75;;
55815;SDS011;41744;52.404;16.942;2023-09-12T15:07:29;11.85;;;8.20;;
55815;SDS011;41744;52.404;16.942;2023-09-12T15:09:56;16.58;;;10.10;;
55815;SDS011;41744;52.404;16.942;2023-09-12T15:12:22;18.00;;;9.13;;
55815;SDS011;41744;52.404;16.942;2023-09-12T15:14:49;13.80;;;9.00;;
55815;SDS011;41744;52.404;16.942;2023-09-12T15:17:16;13.13;;;8.65;;
55815;SDS011;41744;52.404;16.942;2023-09-12T15:19:42;14.32;;;9.30;;
55815;SDS011;41744;52.404;16.942;2023-09-12T15:22:08;14.48;;;9.35;;
55815;SDS011;41744;52.404;16.942;2023-09-12T15:24:34;14.95;;;9.85;;
55815;SDS011;41744;52.404;16.942;2023-09-12T15:27:00;22.20;;;9.20;;
55815;SDS011;41744;52.404;16.942;2023-09-12T15:32:30;16.27;;;11.02;;
55815;SDS011;41744;52.404;16.942;2023-09-12T15:34:56;17.38;;;9.35;;
55815;SDS011;41744;52.404;16.942;2023-09-12T15:37:22;19.92;;;10.35;;
55815;SDS011;41744;52.404;16.942;2023-09-12T15:39:48;21.27;;;10.05;;
55815;SDS011;41744;52.404;16.942;2023-09-12T15:42:15;13.25;;;9.38;;
55815;SDS011;41744;52.404;16.942;2023-09-12T15:44:41;14.50;;;9.52;;
55815;SDS011;41744;52.404;16.942;2023-09-12T15:47:07;15.40;;;9.70;;
55815;SDS011;41744;52.404;16.942;2023-09-12T15:49:33;20.05;;;9.80;;
55815;SDS011;41744;52.404;16.942;2023-09-12T15:51:59;15.63;;;9.70;;
55815;SDS011;41744;52.404;16.942;2023-09-12T15:54:25;19.85;;;10.32;;
55815;SDS011;41744;52.404;16.942;2023-09-12T15:56:52;15.73;;;9.65;;
55815;SDS011;41744;52.404;16.942;2023-09-12T16:02:22;18.52;;;10.25;;
55815;SDS011;41744;52.404;16.942;2023-09-12T16:04:48;20.77;;;10.50;;
55815;SDS011;41744;52.404;16.942;2023-09-12T16:07:14;17.40;;;9.93;;
55815;SDS011;41744;52.404;16.942;2023-09-12T16:09:40;17.98;;;9.93;;
55815;SDS011;41744;52.404;16.942;2023-09-12T16:12:06;19.40;;;9.18;;
55815;SDS011;41744;52.404;16.942;2023-09-12T16:14:32;15.98;;;9.18;;
55815;SDS011;41744;52.404;16.942;2023-09-12T16:16:58;16.90;;;11.32;;
55815;SDS011;41744;52.404;16.942;2023-09-12T16:19:24;17.63;;;10.52;;
55815;SDS011;41744;52.404;16.942;2023-09-12T16:21:50;17.20;;;10.32;;
55815;SDS011;41744;52.404;16.942;2023-09-12T16:24:16;22.60;;;10.52;;
55815;SDS011;41744;52.404;16.942;2023-09-12T16:26:42;15.63;;;9.75;;
55815;SDS011;41744;52.404;16.942;2023-09-12T16:32:12;22.25;;;11.00;;
55815;SDS011;41744;52.404;16.942;2023-09-12T16:34:38;26.17;;;10.93;;